map of HKD home
HKD - Airport
Location
City:  Hakodate, Hokkaido, Japan
Name:Hakodate Airport
ICAO:RJCH
IATA:HKD

Details
Type:Airport (Aerodrome, Airfield)
Use:Public/Civil
Latitude:41°46'12"N (41.770000)
Longitude:140°49'19"E (140.821944)
Datum:WGS 1984
Elevation:151 ft (46 m)
Variation:9.28°W (WMM2015 magnetic declination)
-0.04° annual change
Runways:1
Longest:9842 × 150 ft (3000 × 45.5 m), paved

Time
Time Zone:UTC+9
Local Time:

Weather
METAR:RJCH 131100Z 32004KT 9999 FEW010 SCT050 BKN140 M01/M03 Q1017
TAF:RJCH 131112Z 1312/1418 34006KT 9999 FEW020 BKN040
TEMPO 1400/1406 3000 -SHSN

Related Locations
Nearby:
Farthest:CTQ: 11477 mi / 18470 km
Santa Vitória do Palmar [Aeropuerto Fernando Ferrari], RS, BR

Find:

   beyond  
but within

Other Information
Maps:
NOTAMs:
Links:
Sources:

  
  • flag of Japan
  • flag of Hokkaido
  • flag of Hakodate
  

Sectional Chart

Flight Planning
at skyvector.com

Satellite Image

Google Maps Satellite view

 

Copyright © 2004-2018 Karl L. Swartz. All rights reserved.
The Great Circle Mapper name and logo are trademarks of the Great Circle Mapper.
All other trademarks mentioned herein belong to their respective owners.
Please see credits for attibutions and further copyright information.

  Follow gcmap on Facebook Follow gcmap on Twitter Follow gcmap on Google+ GCmap on LinkedIn

hCard Microformat

Geo Microformat